createdAt,value
2019-01-06T00:08:52.373Z,7.80
2019-01-06T00:27:59.221Z,7.67
2019-01-06T00:30:40.990Z,6.60
2019-01-06T00:33:31.572Z,6.67
2019-01-06T00:36:12.785Z,7.03
2019-01-06T00:38:55.905Z,7.80
2019-01-06T00:42:33.719Z,6.40
2019-01-06T00:44:33.523Z,5.57
2019-01-06T00:47:17.315Z,6.63
2019-01-06T00:50:17.778Z,5.40
2019-01-06T00:56:31.987Z,5.20
2019-01-06T00:59:26.058Z,6.50
2019-01-06T01:02:21.196Z,6.87
2019-01-06T01:05:22.160Z,6.70
2019-01-06T01:08:11.129Z,6.07
2019-01-06T01:11:05.261Z,7.30
2019-01-06T01:14:25.741Z,5.93
2019-01-06T01:17:12.121Z,5.93
2019-01-06T01:20:30.706Z,5.37
2019-01-06T01:22:50.236Z,6.87
2019-01-06T01:25:27.997Z,5.17
2019-01-06T01:32:09.318Z,4.87
2019-01-06T01:35:23.349Z,4.93
2019-01-06T01:37:37.481Z,5.53
2019-01-06T01:40:37.558Z,5.90
2019-01-06T01:44:07.880Z,6.37
2019-01-06T01:49:43.446Z,6.80
2019-01-06T01:53:01.541Z,7.00
2019-01-06T01:56:18.083Z,6.87
2019-01-06T01:58:45.592Z,7.47
2019-01-06T02:01:32.224Z,6.73
2019-01-06T02:04:28.202Z,8.83
2019-01-06T02:07:16.078Z,7.13
2019-01-06T02:13:06.530Z,6.50
2019-01-06T02:16:03.037Z,7.83
2019-01-06T02:19:09.311Z,7.17
2019-01-06T02:21:45.212Z,9.30
2019-01-06T02:28:48.310Z,7.53
2019-01-06T02:30:44.192Z,8.67
2019-01-06T02:33:53.422Z,6.33
2019-01-06T02:36:34.278Z,7.33
2019-01-06T02:39:30.545Z,6.10
2019-01-06T02:42:15.814Z,8.40
2019-01-06T02:45:02.001Z,8.10
2019-01-06T02:47:58.705Z,7.23
2019-01-06T02:50:46.664Z,7.27
2019-01-06T02:53:54.936Z,8.80
2019-01-06T02:56:48.748Z,6.80
2019-01-06T03:00:06.660Z,6.97
2019-01-06T03:02:51.340Z,8.53
2019-01-06T03:12:17.067Z,7.60
2019-01-06T03:15:31.419Z,6.47
2019-01-06T03:18:29.288Z,8.53
2019-01-06T03:21:27.965Z,6.90
2019-01-06T03:27:49.149Z,7.33
2019-01-06T03:30:34.877Z,7.77
2019-01-06T03:33:36.956Z,7.70
2019-01-06T03:36:35.321Z,8.50
2019-01-06T03:39:13.208Z,7.40
2019-01-06T03:41:54.800Z,8.37
2019-01-06T03:44:49.661Z,7.07
2019-01-06T03:50:59.914Z,7.23
2019-01-06T03:53:56.093Z,7.93
2019-01-06T03:59:53.726Z,8.63
2019-01-06T04:02:51.293Z,6.97
2019-01-06T04:05:46.588Z,10.50
2019-01-06T04:08:37.395Z,6.93
2019-01-06T04:11:30.625Z,7.67
2019-01-06T04:14:33.615Z,6.77
2019-01-06T04:17:35.472Z,7.33
2019-01-06T04:20:29.107Z,8.00
2019-01-06T04:23:26.951Z,5.93
2019-01-06T04:26:12.846Z,9.20
2019-01-06T04:29:10.205Z,9.00
2019-01-06T04:31:49.179Z,6.80
2019-01-06T04:34:35.420Z,7.03
2019-01-06T04:37:19.961Z,6.93
2019-01-06T04:40:14.955Z,7.83
2019-01-06T04:43:03.636Z,9.53
2019-01-06T04:45:56.664Z,9.00
2019-01-06T04:48:41.632Z,8.33
2019-01-06T04:51:38.887Z,8.57
2019-01-06T04:54:23.230Z,16.53
2019-01-06T04:57:16.987Z,10.67
2019-01-06T05:03:01.450Z,7.90
2019-01-06T05:05:53.080Z,13.30
2019-01-06T05:14:21.584Z,9.73
2019-01-06T05:17:09.064Z,7.73
2019-01-06T05:19:46.231Z,7.97
2019-01-06T05:22:26.746Z,9.27
2019-01-06T05:25:07.452Z,7.70
2019-01-06T05:27:41.311Z,9.23
2019-01-06T05:30:41.757Z,7.73
2019-01-06T05:33:15.852Z,11.63
2019-01-06T05:36:03.307Z,6.97
2019-01-06T05:38:37.363Z,6.70
2019-01-06T05:41:14.642Z,7.37
2019-01-06T05:43:48.918Z,7.10
2019-01-06T05:46:32.184Z,7.90
2019-01-06T05:49:15.547Z,7.17
2019-01-06T05:51:49.664Z,10.97
2019-01-06T05:54:23.852Z,7.50
2019-01-06T05:57:10.322Z,6.77
2019-01-06T05:59:50.219Z,8.60
2019-01-06T06:02:37.793Z,7.83
2019-01-06T06:05:25.061Z,8.30
2019-01-06T06:08:33.209Z,9.90
2019-01-06T06:11:15.444Z,8.80
2019-01-06T06:13:49.575Z,9.50
2019-01-06T06:16:29.732Z,10.37
2019-01-06T06:19:19.491Z,10.07
2019-01-06T06:22:07.068Z,9.00
2019-01-06T06:24:54.400Z,8.97
2019-01-06T06:27:44.316Z,9.20
2019-01-06T06:30:15.665Z,9.23
2019-01-06T06:32:55.896Z,9.47
2019-01-06T06:35:27.189Z,8.40
2019-01-06T06:37:58.479Z,9.53
2019-01-06T06:40:29.858Z,14.23
2019-01-06T06:43:10.510Z,8.93
2019-01-06T06:45:50.615Z,7.63
2019-01-06T06:48:33.681Z,10.37
2019-01-06T06:51:16.815Z,7.50
2019-01-06T06:53:53.818Z,8.07
2019-01-06T06:56:36.788Z,7.63
2019-01-06T06:59:08.171Z,11.90
2019-01-06T07:01:42.819Z,8.60
2019-01-06T07:04:23.252Z,12.77
2019-01-06T07:07:06.439Z,7.93
2019-01-06T07:09:37.695Z,7.47
2019-01-06T07:12:09.044Z,7.93
2019-01-06T07:14:40.313Z,6.53
2019-01-06T07:17:48.760Z,9.10
2019-01-06T07:20:28.677Z,7.57
2019-01-06T07:23:02.730Z,13.53
2019-01-06T07:25:33.972Z,10.70
2019-01-06T07:28:14.514Z,8.40
2019-01-06T07:31:03.906Z,8.20
2019-01-06T07:33:37.728Z,11.87
2019-01-06T07:36:21.392Z,8.37
2019-01-06T07:39:08.545Z,8.20
2019-01-06T07:41:56.411Z,10.90
2019-01-06T07:44:37.094Z,9.83
2019-01-06T07:47:23.530Z,7.27
2019-01-06T07:49:54.848Z,7.93
2019-01-06T07:52:26.105Z,8.73
2019-01-06T07:55:03.172Z,8.70
2019-01-06T07:57:34.844Z,9.47
2019-01-06T08:00:23.303Z,9.83
2019-01-06T08:03:06.565Z,9.00
2019-01-06T08:05:52.983Z,10.67
2019-01-06T08:08:24.271Z,9.83
2019-01-06T08:10:58.459Z,8.10
2019-01-06T08:13:32.389Z,9.70
2019-01-06T08:16:03.692Z,9.20
2019-01-06T08:18:51.509Z,8.83
2019-01-06T08:21:22.819Z,11.37
2019-01-06T08:24:10.445Z,8.63
2019-01-06T08:26:47.666Z,7.97
2019-01-06T08:29:21.567Z,8.33
2019-01-06T08:32:11.517Z,9.00
2019-01-06T08:34:42.757Z,8.90
2019-01-06T08:37:19.957Z,14.30
2019-01-06T08:39:51.224Z,8.40
2019-01-06T08:42:38.687Z,8.27
2019-01-06T08:45:26.274Z,8.80
2019-01-06T08:48:06.697Z,8.87
2019-01-06T08:50:44.094Z,9.63
2019-01-06T08:53:31.740Z,9.23
2019-01-06T08:56:18.887Z,9.67
2019-01-06T08:58:59.251Z,8.37
2019-01-06T09:01:39.686Z,8.40
2019-01-06T09:04:25.934Z,9.27
2019-01-06T09:07:09.304Z,8.93
2019-01-06T09:09:45.513Z,8.23
2019-01-06T09:12:28.226Z,10.00
2019-01-06T09:14:59.607Z,8.70
2019-01-06T09:17:46.863Z,9.10
2019-01-06T09:20:24.136Z,10.13
2019-01-06T09:23:17.561Z,9.40
2019-01-06T09:26:01.438Z,9.13
2019-01-06T09:28:50.174Z,9.30
2019-01-06T09:31:33.700Z,8.57
2019-01-06T09:34:19.857Z,8.83
2019-01-06T09:36:54.592Z,7.83
2019-01-06T09:39:30.854Z,8.37
2019-01-06T09:42:04.894Z,9.93
2019-01-06T09:44:41.853Z,9.53
2019-01-06T09:47:33.618Z,8.80
2019-01-06T09:50:21.677Z,9.83
2019-01-06T09:52:58.884Z,9.00
2019-01-06T09:55:43.400Z,8.87
2019-01-06T09:58:14.118Z,14.00
2019-01-06T10:01:00.869Z,9.20
2019-01-06T10:03:47.190Z,10.83
2019-01-06T10:06:24.210Z,8.97
2019-01-06T10:09:16.774Z,10.33
2019-01-06T10:12:07.229Z,9.83
2019-01-06T10:15:05.319Z,10.53
2019-01-06T10:17:41.205Z,10.77
2019-01-06T10:20:19.049Z,11.80
2019-01-06T10:23:05.291Z,14.33
2019-01-06T10:25:39.952Z,11.93
2019-01-06T10:28:17.651Z,12.40
2019-01-06T10:31:05.225Z,10.70
2019-01-06T10:34:01.844Z,11.13
2019-01-06T10:36:42.709Z,11.13
2019-01-06T10:40:07.256Z,10.00
2019-01-06T10:43:08.200Z,10.97
2019-01-06T10:45:45.877Z,10.70
2019-01-06T10:48:55.686Z,11.07
2019-01-06T10:51:46.964Z,10.67
2019-01-06T10:54:33.880Z,11.33
2019-01-06T10:57:05.113Z,10.63
2019-01-06T10:59:36.870Z,11.63
2019-01-06T11:02:14.394Z,12.13
2019-01-06T11:05:05.851Z,9.70
2019-01-06T11:10:45.118Z,10.00
2019-01-06T11:13:16.473Z,9.90
2019-01-06T11:15:47.976Z,10.60
2019-01-06T11:18:31.224Z,11.33
2019-01-06T11:21:05.710Z,10.47
2019-01-06T11:23:53.244Z,10.27
2019-01-06T11:26:30.204Z,10.60
2019-01-06T11:29:03.428Z,10.07
2019-01-06T11:31:50.275Z,9.37
2019-01-06T11:34:21.807Z,10.10
2019-01-06T11:37:05.373Z,10.10
2019-01-06T11:39:55.210Z,9.67
2019-01-06T11:42:42.469Z,11.17
2019-01-06T11:45:16.625Z,10.73
2019-01-06T11:47:48.148Z,10.83
2019-01-06T11:50:25.633Z,10.30
2019-01-06T11:52:56.974Z,11.30
2019-01-06T11:55:34.141Z,11.57
2019-01-06T11:58:21.261Z,12.03
2019-01-06T12:01:08.819Z,12.37
2019-01-06T12:03:42.740Z,12.00
2019-01-06T12:06:30.308Z,11.40
2019-01-06T12:09:07.194Z,11.17
2019-01-06T12:11:41.104Z,11.73
2019-01-06T12:14:18.143Z,11.37
2019-01-06T12:17:05.257Z,11.83
2019-01-06T12:19:39.501Z,11.00
2019-01-06T12:22:26.744Z,12.47
2019-01-06T12:24:58.291Z,12.57
2019-01-06T12:27:46.033Z,12.33
2019-01-06T12:30:17.343Z,12.13
2019-01-06T12:33:04.430Z,11.17
2019-01-06T12:35:51.867Z,12.03
2019-01-06T12:38:39.169Z,11.70
2019-01-06T12:41:10.369Z,10.93
2019-01-06T12:43:47.592Z,10.97
2019-01-06T12:46:18.995Z,11.83
2019-01-06T12:48:58.905Z,11.37
2019-01-06T12:51:48.482Z,11.13
2019-01-06T12:54:37.878Z,11.80
2019-01-06T12:57:14.772Z,11.10
2019-01-06T12:59:56.260Z,12.60
2019-01-06T13:02:30.998Z,12.17
2019-01-06T13:05:14.928Z,12.07
2019-01-06T13:07:55.035Z,11.87
2019-01-06T13:10:28.904Z,13.07
2019-01-06T13:13:15.007Z,10.83
2019-01-06T13:15:51.669Z,11.23
2019-01-06T13:18:31.772Z,10.70
2019-01-06T13:21:03.130Z,11.13
2019-01-06T13:23:34.410Z,11.07
2019-01-06T13:26:08.047Z,11.73
2019-01-06T13:28:45.023Z,10.63
2019-01-06T13:31:16.289Z,11.63
2019-01-06T13:33:50.136Z,12.47
2019-01-06T13:36:24.132Z,11.83
2019-01-06T13:38:55.508Z,11.60
2019-01-06T13:41:35.192Z,10.80
2019-01-06T13:44:22.720Z,11.43
2019-01-06T13:47:10.314Z,15.37
2019-01-06T13:49:41.552Z,24.03
2019-01-06T13:52:12.762Z,19.93
2019-01-06T13:54:46.453Z,13.43
2019-01-06T13:57:26.546Z,21.43
2019-01-06T13:59:58.046Z,16.07
2019-01-06T14:02:47.639Z,11.83
2019-01-06T14:05:35.255Z,13.00
2019-01-06T14:08:22.385Z,21.80
2019-01-06T14:10:53.732Z,18.67
2019-01-06T14:13:27.921Z,14.37
2019-01-06T14:16:01.572Z,13.33
2019-01-06T14:18:32.843Z,13.37
2019-01-06T14:21:04.093Z,13.97
2019-01-06T14:23:44.439Z,12.50
2019-01-06T14:26:18.886Z,13.60
2019-01-06T14:29:06.463Z,10.90
2019-01-06T14:31:54.330Z,12.13
2019-01-06T14:34:43.766Z,11.30
2019-01-06T14:37:28.071Z,11.33
2019-01-06T14:40:05.165Z,10.67
2019-01-06T14:42:41.824Z,10.53
2019-01-06T14:45:12.953Z,11.20
2019-01-06T14:47:49.733Z,11.70
2019-01-06T14:50:36.969Z,11.83
2019-01-06T14:53:08.122Z,11.40
2019-01-06T14:55:42.231Z,10.53
2019-01-06T14:58:16.076Z,12.47
2019-01-06T15:00:47.270Z,9.33
2019-01-06T15:03:34.723Z,9.27
2019-01-06T15:06:22.374Z,8.53
2019-01-06T15:09:08.402Z,9.10
2019-01-06T15:11:56.030Z,8.70
2019-01-06T15:14:36.302Z,8.00
2019-01-06T15:17:23.528Z,6.70
2019-01-06T15:19:54.838Z,6.73
2019-01-06T15:22:44.305Z,6.33
2019-01-06T15:25:15.578Z,5.60
2019-01-06T15:27:46.821Z,5.93
2019-01-06T15:30:34.204Z,4.90
2019-01-06T15:33:05.518Z,4.70
2019-01-06T15:35:53.131Z,4.77
2019-01-06T15:38:30.368Z,4.03
2019-01-06T15:41:18.141Z,4.10
2019-01-06T15:43:58.394Z,2.73
2019-01-06T15:46:35.741Z,3.60
2019-01-06T15:49:24.970Z,3.30
2019-01-06T15:52:08.564Z,2.70
2019-01-06T15:54:40.644Z,3.40
2019-01-06T15:57:17.605Z,3.27
2019-01-06T16:00:05.262Z,3.40
2019-01-06T16:02:36.585Z,3.83
2019-01-06T16:05:23.874Z,3.10
2019-01-06T16:08:11.506Z,3.50
2019-01-06T16:10:45.658Z,4.03
2019-01-06T16:13:22.859Z,4.07
2019-01-06T16:15:54.065Z,4.40
2019-01-06T16:21:23.961Z,4.07
2019-01-06T16:23:56.445Z,5.40
2019-01-06T16:26:43.499Z,4.57
2019-01-06T16:29:31.190Z,4.70
2019-01-06T16:32:18.664Z,4.40
2019-01-06T16:34:52.921Z,4.90
2019-01-06T16:37:26.838Z,4.80
2019-01-06T16:40:14.301Z,9.07
2019-01-06T16:42:45.635Z,7.50
2019-01-06T16:45:16.938Z,6.50
2019-01-06T16:47:51.141Z,4.73
2019-01-06T16:50:34.316Z,6.80
2019-01-06T16:53:08.072Z,5.07
2019-01-06T16:55:40.959Z,6.27
2019-01-06T16:58:18.104Z,6.10
2019-01-06T17:01:01.353Z,4.80
2019-01-06T17:03:32.819Z,4.67
2019-01-06T17:06:07.018Z,5.17
2019-01-06T17:08:50.216Z,5.03
2019-01-06T17:11:24.917Z,11.17
2019-01-06T17:14:08.330Z,4.93
2019-01-06T17:16:51.582Z,5.97
2019-01-06T17:19:37.769Z,4.70
2019-01-06T17:22:11.605Z,5.03
2019-01-06T17:24:45.574Z,4.37
2019-01-06T17:27:31.760Z,3.53
2019-01-06T17:30:11.764Z,5.50
2019-01-06T17:32:45.696Z,4.30
2019-01-06T17:35:19.830Z,4.30
2019-01-06T17:38:00.250Z,5.07
2019-01-06T17:40:49.363Z,4.30
2019-01-06T17:43:35.827Z,5.37
2019-01-06T17:46:22.928Z,5.10
2019-01-06T17:49:00.393Z,4.77
2019-01-06T17:51:46.376Z,6.00
2019-01-06T17:54:26.521Z,4.43
2019-01-06T17:57:00.652Z,4.53
2019-01-06T17:59:31.922Z,5.40
2019-01-06T18:02:19.446Z,5.10
2019-01-06T18:05:06.886Z,4.77
2019-01-06T18:07:44.404Z,3.33
2019-01-06T18:10:24.253Z,4.10
2019-01-06T18:12:55.531Z,4.53
2019-01-06T18:15:35.855Z,4.43
2019-01-06T18:18:22.328Z,3.93
2019-01-06T18:21:09.815Z,4.37
2019-01-06T18:23:57.237Z,5.20
2019-01-06T18:26:45.833Z,4.03
2019-01-06T18:29:17.243Z,4.97
2019-01-06T18:32:00.647Z,4.53
2019-01-06T18:34:31.842Z,4.60
2019-01-06T18:37:12.074Z,4.43
2019-01-06T18:39:48.782Z,4.60
2019-01-06T18:42:26.064Z,5.10
2019-01-06T18:44:59.751Z,5.20
2019-01-06T18:47:33.666Z,4.47
2019-01-06T18:50:04.971Z,4.60
2019-01-06T18:52:36.363Z,4.10
2019-01-06T18:55:23.550Z,4.50
2019-01-06T18:58:11.213Z,5.20
2019-01-06T19:00:54.802Z,4.37
2019-01-06T19:03:42.059Z,4.90
2019-01-06T19:06:20.126Z,4.57
2019-01-06T19:08:57.569Z,4.77
2019-01-06T19:11:28.843Z,4.90
2019-01-06T19:14:18.377Z,5.93
2019-01-06T19:17:04.383Z,5.17
2019-01-06T19:19:51.462Z,5.33
2019-01-06T19:22:38.992Z,5.40
2019-01-06T19:25:13.166Z,5.37
2019-01-06T19:27:56.773Z,5.30
2019-01-06T19:30:33.850Z,5.20
2019-01-06T19:33:21.682Z,6.13
2019-01-06T19:36:09.254Z,5.07
2019-01-06T19:38:56.853Z,5.70
2019-01-06T19:41:30.808Z,4.93
2019-01-06T19:44:08.101Z,8.43
2019-01-06T19:46:39.390Z,5.30
2019-01-06T19:49:10.537Z,5.63
2019-01-06T19:51:57.603Z,7.43
2019-01-06T19:54:34.641Z,6.13
2019-01-06T19:57:09.025Z,5.80
2019-01-06T19:59:43.083Z,8.37
2019-01-06T20:02:14.239Z,6.90
2019-01-06T20:04:45.507Z,7.87
2019-01-06T20:07:22.708Z,6.40
2019-01-06T20:10:03.060Z,7.23
2019-01-06T20:12:51.239Z,5.93
2019-01-06T20:15:34.953Z,6.60
2019-01-06T20:18:23.428Z,6.20
2019-01-06T20:21:29.289Z,6.40
2019-01-06T20:24:16.815Z,5.77
2019-01-06T20:26:50.843Z,5.93
2019-01-06T20:29:40.027Z,5.70
2019-01-06T20:32:20.398Z,6.40
2019-01-06T20:35:00.286Z,6.47
2019-01-06T20:37:47.376Z,6.13
2019-01-06T20:40:34.751Z,4.77
2019-01-06T20:43:21.421Z,6.93
2019-01-06T20:46:08.790Z,7.10
2019-01-06T20:48:42.780Z,5.73
2019-01-06T20:51:14.012Z,5.57
2019-01-06T20:54:01.882Z,7.03
2019-01-06T20:56:33.335Z,5.87
2019-01-06T20:59:13.211Z,5.80
2019-01-06T21:01:53.260Z,9.73
2019-01-06T21:04:33.551Z,8.10
2019-01-06T21:07:17.222Z,10.10
2019-01-06T21:09:48.523Z,6.07
2019-01-06T21:12:37.885Z,6.53
2019-01-06T21:15:11.792Z,6.43
2019-01-06T21:17:43.081Z,7.50
2019-01-06T21:20:14.310Z,6.83
2019-01-06T21:23:01.965Z,7.40
2019-01-06T21:25:36.061Z,6.53
2019-01-06T21:28:13.318Z,5.53
2019-01-06T21:31:03.387Z,6.50
2019-01-06T21:33:43.866Z,6.80
2019-01-06T21:36:33.222Z,6.10
2019-01-06T21:39:16.488Z,6.60
2019-01-06T21:42:03.922Z,6.33
2019-01-06T21:44:44.056Z,6.27
2019-01-06T21:47:31.323Z,7.10
2019-01-06T21:50:02.511Z,7.77
2019-01-06T21:52:33.850Z,7.20
2019-01-06T21:55:05.222Z,6.20
2019-01-06T21:57:55.001Z,8.57
2019-01-06T22:00:29.345Z,7.37
2019-01-06T22:03:18.608Z,7.90
2019-01-06T22:05:55.836Z,8.27
2019-01-06T22:08:32.730Z,8.13
2019-01-06T22:11:12.898Z,6.40
2019-01-06T22:14:02.675Z,6.30
2019-01-06T22:16:36.589Z,6.77
2019-01-06T22:19:16.773Z,5.53
2019-01-06T22:22:06.128Z,5.00
2019-01-06T22:24:41.305Z,5.83
2019-01-06T22:27:12.687Z,5.60
2019-01-06T22:29:49.945Z,5.90
2019-01-06T22:32:37.113Z,5.07
2019-01-06T22:35:08.420Z,6.90
2019-01-06T22:37:45.527Z,5.13
2019-01-06T22:40:31.810Z,4.90
2019-01-06T22:43:08.763Z,4.47
2019-01-06T22:45:48.648Z,5.13
2019-01-06T22:48:28.818Z,4.40
2019-01-06T22:51:05.866Z,5.43
2019-01-06T22:53:37.226Z,6.33
2019-01-06T22:56:20.769Z,5.10
2019-01-06T22:59:04.084Z,5.13
2019-01-06T23:01:51.372Z,5.10
2019-01-06T23:04:28.323Z,5.37
2019-01-06T23:06:59.514Z,5.57
2019-01-06T23:09:39.437Z,5.20
2019-01-06T23:12:19.675Z,5.20
2019-01-06T23:14:53.634Z,5.13
2019-01-06T23:17:43.193Z,5.93
2019-01-06T23:20:17.424Z,5.73
2019-01-06T23:22:51.324Z,5.67
2019-01-06T23:25:39.095Z,5.80
2019-01-06T23:28:26.694Z,5.93
2019-01-06T23:31:03.857Z,5.50
2019-01-06T23:33:40.987Z,5.80
2019-01-06T23:36:28.425Z,5.10
2019-01-06T23:39:16.042Z,5.73
2019-01-06T23:42:03.466Z,6.13
2019-01-06T23:44:37.380Z,5.97
2019-01-06T23:47:20.419Z,4.97
2019-01-06T23:49:54.460Z,5.30
2019-01-06T23:52:31.401Z,5.40
2019-01-06T23:55:17.629Z,5.73
2019-01-06T23:57:51.628Z,4.70
